Time;durP1;ratioP1;P1;durP2;ratioP2;P2;SDS_P1;SDS_P2;PMS_P1;PMS_P2;Temp;Humidity;BMP_temperature;BMP_pressure;BME280_temperature;BME280_humidity;BME280_pressure;Samples;Min_cycle;Max_cycle;Signal;HPM_P1;HPM_P2
2023/04/14 00:02:25;;;;;;;4.70;2.95;;;;;;;;;;5026229;28;20080;-81
2023/04/14 00:04:52;;;;;;;7.43;3.30;;;;;;;;;;5037643;28;20060;-79
2023/04/14 00:07:18;;;;;;;8.70;3.65;;;;;;;;;;5019555;28;20025;-78
2023/04/14 00:09:45;;;;;;;12.75;3.60;;;;;;;;;;5040147;28;20079;-76
2023/04/14 00:12:11;;;;;;;6.93;3.50;;;;;;;;;;5022383;28;20057;-75
2023/04/14 00:14:36;;;;;;;7.43;3.03;;;;;;;;;;5042205;28;20041;-79
2023/04/14 00:17:02;;;;;;;9.88;3.45;;;;;;;;;;5023916;28;20462;-81
2023/04/14 00:19:28;;;;;;;4.10;2.25;;;;;;;;;;5041423;28;20104;-80
2023/04/14 00:21:55;;;;;;;7.57;3.22;;;;;;;;;;5041616;28;20017;-79
2023/04/14 00:24:21;;;;;;;6.53;3.15;;;;;;;;;;5039784;28;20021;-79
2023/04/14 00:26:47;;;;;;;8.10;4.40;;;;;;;;;;5039901;28;20034;-80
2023/04/14 00:29:13;;;;;;;8.45;4.22;;;;;;;;;;5021762;28;20051;-76
2023/04/14 00:31:39;;;;;;;5.93;3.42;;;;;;;;;;5040236;28;20033;-81
2023/04/14 00:34:05;;;;;;;6.80;2.85;;;;;;;;;;5021798;28;20048;-81
2023/04/14 00:36:31;;;;;;;6.65;2.80;;;;;;;;;;5021046;28;20076;-79
2023/04/14 00:38:57;;;;;;;4.10;2.60;;;;;;;;;;5039113;28;20018;-80
2023/04/14 00:41:26;;;;;;;4.80;2.75;;;;;;;;;;5038124;28;20124;-77
2023/04/14 00:43:53;;;;;;;5.00;2.53;;;;;;;;;;5019024;28;20021;-73
2023/04/14 00:46:19;;;;;;;2.92;2.58;;;;;;;;;;5036784;28;20029;-78
2023/04/14 00:48:45;;;;;;;7.40;2.67;;;;;;;;;;5019000;28;20053;-76
2023/04/14 00:51:11;;;;;;;4.32;2.50;;;;;;;;;;5035895;28;20021;-75
2023/04/14 00:53:37;;;;;;;3.25;2.30;;;;;;;;;;5035230;28;20477;-75
2023/04/14 00:56:04;;;;;;;3.05;2.05;;;;;;;;;;5017932;28;20034;-79
2023/04/14 00:58:30;;;;;;;4.28;2.22;;;;;;;;;;5034677;28;20025;-80
2023/04/14 01:00:57;;;;;;;2.90;2.00;;;;;;;;;;5036167;28;20541;-77
2023/04/14 01:03:24;;;;;;;3.92;1.88;;;;;;;;;;5036521;28;20029;-81
2023/04/14 01:05:50;;;;;;;2.28;1.90;;;;;;;;;;5037027;28;20078;-80
2023/04/14 01:08:16;;;;;;;4.57;2.90;;;;;;;;;;5034652;28;20112;-80
2023/04/14 01:10:47;;;;;;;6.53;2.65;;;;;;;;;;5033564;28;20026;-76
2023/04/14 01:13:20;;;;;;;4.82;2.22;;;;;;;;;;5033472;28;20026;-73
2023/04/14 01:15:59;;;;;;;8.27;2.80;;;;;;;;;;5031257;28;20402;-76
2023/04/14 01:18:44;;;;;;;8.02;2.80;;;;;;;;;;5014266;28;20387;-78
2023/04/14 01:21:13;;;;;;;6.05;3.00;;;;;;;;;;5033701;28;20040;-80
2023/04/14 01:23:53;;;;;;;4.88;2.80;;;;;;;;;;5035677;28;20017;-76
2023/04/14 01:26:21;;;;;;;6.18;3.08;;;;;;;;;;5018853;28;20034;-81
2023/04/14 01:29:03;;;;;;;4.80;2.60;;;;;;;;;;5036176;28;20037;-81
2023/04/14 01:31:29;;;;;;;5.28;2.78;;;;;;;;;;5036521;28;20385;-77
2023/04/14 01:34:05;;;;;;;4.88;2.65;;;;;;;;;;5032831;28;20028;-72
2023/04/14 01:36:40;;;;;;;6.47;3.08;;;;;;;;;;5015610;28;20021;-73
2023/04/14 01:39:08;;;;;;;11.30;3.92;;;;;;;;;;5014066;28;20507;-75
2023/04/14 01:41:34;;;;;;;6.10;2.70;;;;;;;;;;5031894;28;20100;-73
2023/04/14 01:44:01;;;;;;;9.88;3.70;;;;;;;;;;5014441;28;20586;-72
2023/04/14 01:46:27;;;;;;;6.03;3.15;;;;;;;;;;5032306;28;20021;-74
2023/04/14 01:48:54;;;;;;;4.60;2.42;;;;;;;;;;5032719;28;20027;-72
2023/04/14 01:51:21;;;;;;;3.22;2.80;;;;;;;;;;5015991;28;20087;-76
2023/04/14 01:53:47;;;;;;;9.95;2.95;;;;;;;;;;5033460;28;20096;-75
2023/04/14 01:56:15;;;;;;;4.78;2.40;;;;;;;;;;5015771;28;20025;-81
2023/04/14 01:58:42;;;;;;;9.05;2.65;;;;;;;;;;5037102;28;20024;-72
2023/04/14 02:01:08;;;;;;;6.60;2.67;;;;;;;;;;5036718;28;20053;-72
2023/04/14 02:03:35;;;;;;;4.25;2.47;;;;;;;;;;5037693;28;20017;-72
2023/04/14 02:06:03;;;;;;;2.35;2.13;;;;;;;;;;5038300;28;20502;-78
2023/04/14 02:08:31;;;;;;;5.70;3.10;;;;;;;;;;5037723;28;20500;-72
2023/04/14 02:10:59;;;;;;;4.40;2.53;;;;;;;;;;5036736;28;20493;-75
2023/04/14 02:13:26;;;;;;;5.88;2.35;;;;;;;;;;5018820;28;20031;-75
2023/04/14 02:15:52;;;;;;;3.67;2.70;;;;;;;;;;5018581;28;20044;-76
2023/04/14 02:18:22;;;;;;;6.00;2.22;;;;;;;;;;5037241;28;20022;-71
2023/04/14 02:20:51;;;;;;;3.85;2.88;;;;;;;;;;5036812;28;20022;-72
2023/04/14 02:23:17;;;;;;;4.53;2.40;;;;;;;;;;5019567;28;20032;-72
2023/04/14 02:25:52;;;;;;;3.72;2.60;;;;;;;;;;5017913;28;20467;-80
2023/04/14 02:28:19;;;;;;;5.15;2.22;;;;;;;;;;5017553;28;20032;-75
2023/04/14 02:30:47;;;;;;;4.03;2.40;;;;;;;;;;5036628;28;20091;-80
2023/04/14 02:33:16;;;;;;;7.15;2.85;;;;;;;;;;5037301;28;20472;-75
2023/04/14 02:35:44;;;;;;;7.63;2.57;;;;;;;;;;5037362;28;20081;-78
2023/04/14 02:38:13;;;;;;;10.48;4.00;;;;;;;;;;5038600;28;20040;-80
2023/04/14 02:40:41;;;;;;;4.97;2.75;;;;;;;;;;5037782;28;20053;-75
2023/04/14 02:43:11;;;;;;;7.63;2.40;;;;;;;;;;5037313;28;20036;-77
2023/04/14 02:45:38;;;;;;;3.45;2.30;;;;;;;;;;5035772;28;20351;-75
2023/04/14 02:48:08;;;;;;;6.00;2.80;;;;;;;;;;5017328;28;20018;-73
2023/04/14 02:50:35;;;;;;;6.68;2.85;;;;;;;;;;5035894;28;20021;-72
2023/04/14 02:53:02;;;;;;;2.60;1.90;;;;;;;;;;5035185;28;20049;-75
2023/04/14 02:55:28;;;;;;;8.10;2.55;;;;;;;;;;5036118;28;20696;-73
2023/04/14 02:57:55;;;;;;;3.83;2.20;;;;;;;;;;5017514;28;20021;-73
2023/04/14 03:00:21;;;;;;;6.43;2.97;;;;;;;;;;5037319;28;20045;-81
2023/04/14 03:02:48;;;;;;;6.03;2.20;;;;;;;;;;5020165;28;20025;-80
2023/04/14 03:05:14;;;;;;;3.65;2.10;;;;;;;;;;5035935;28;20029;-72
2023/04/14 03:07:42;;;;;;;3.70;2.58;;;;;;;;;;5036915;28;20032;-81
2023/04/14 03:10:10;;;;;;;5.13;2.00;;;;;;;;;;5037263;28;20044;-81
2023/04/14 03:12:37;;;;;;;4.80;2.28;;;;;;;;;;5019181;28;20028;-82
2023/04/14 03:15:03;;;;;;;3.90;1.67;;;;;;;;;;5018526;28;20041;-72
2023/04/14 03:17:31;;;;;;;5.75;2.45;;;;;;;;;;5035562;28;20536;-73
2023/04/14 03:19:59;;;;;;;5.72;1.90;;;;;;;;;;5017840;28;20030;-80
2023/04/14 03:22:26;;;;;;;5.03;1.90;;;;;;;;;;5035462;28;20101;-76
2023/04/14 03:24:57;;;;;;;4.60;1.67;;;;;;;;;;5033971;28;20064;-76
2023/04/14 03:27:30;;;;;;;5.43;1.45;;;;;;;;;;5034568;28;20060;-78
2023/04/14 03:29:59;;;;;;;2.22;1.67;;;;;;;;;;5034842;28;20518;-73
2023/04/14 03:32:25;;;;;;;;;;;;;;;;;;5034932;28;20117;-80
2023/04/14 03:34:53;;;;;;;5.95;2.13;;;;;;;;;;5034797;28;19983;-78
2023/04/14 03:37:21;;;;;;;1.80;1.70;;;;;;;;;;5034053;28;20025;-78
2023/04/14 03:39:50;;;;;;;4.85;1.55;;;;;;;;;;5017406;28;20025;-80
2023/04/14 03:42:19;;;;;;;5.35;2.30;;;;;;;;;;5035687;28;20024;-73
2023/04/14 03:44:50;;;;;;;8.10;2.83;;;;;;;;;;5035909;28;20032;-78
2023/04/14 03:47:18;;;;;;;2.22;1.85;;;;;;;;;;5017403;28;20485;-75
2023/04/14 03:49:45;;;;;;;5.07;3.17;;;;;;;;;;5017937;28;20382;-81
2023/04/14 03:52:13;;;;;;;11.10;2.58;;;;;;;;;;5034705;28;20501;-80
2023/04/14 03:54:40;;;;;;;5.85;1.85;;;;;;;;;;5016835;28;20485;-78
2023/04/14 03:57:08;;;;;;;3.13;1.65;;;;;;;;;;5035288;28;20021;-74
2023/04/14 03:59:36;;;;;;;6.20;2.38;;;;;;;;;;5034133;28;20563;-73
2023/04/14 04:02:02;;;;;;;5.47;1.92;;;;;;;;;;5036100;28;20052;-80
2023/04/14 04:04:29;;;;;;;2.22;2.00;;;;;;;;;;5017498;28;20033;-79
2023/04/14 04:06:56;;;;;;;3.05;2.05;;;;;;;;;;5016680;28;20018;-79
2023/04/14 04:09:23;;;;;;;3.10;2.10;;;;;;;;;;5038676;28;20021;-77
2023/04/14 04:11:51;;;;;;;2.85;2.58;;;;;;;;;;5021558;28;20025;-78
2023/04/14 04:14:18;;;;;;;5.30;2.00;;;;;;;;;;5020264;28;20061;-74
2023/04/14 04:16:46;;;;;;;2.72;1.70;;;;;;;;;;5020235;28;20040;-76
2023/04/14 04:19:14;;;;;;;2.13;1.70;;;;;;;;;;5037551;28;20026;-78
2023/04/14 04:21:41;;;;;;;4.30;1.77;;;;;;;;;;5035909;28;20014;-77
2023/04/14 04:24:08;;;;;;;4.53;1.92;;;;;;;;;;5033254;28;20021;-73
2023/04/14 04:26:37;;;;;;;3.83;2.28;;;;;;;;;;5032215;28;20021;-75
2023/04/14 04:29:03;;;;;;;;;;;;;;;;;;5015027;28;20045;-74
2023/04/14 04:31:31;;;;;;;4.90;2.17;;;;;;;;;;5014816;28;20054;-74
2023/04/14 04:33:57;;;;;;;1.85;1.33;;;;;;;;;;5016051;28;20026;-79
2023/04/14 04:36:24;;;;;;;3.45;2.05;;;;;;;;;;5016894;28;20108;-79
2023/04/14 04:38:50;;;;;;;2.38;1.75;;;;;;;;;;5033860;28;20256;-79
2023/04/14 04:41:27;;;;;;;3.58;1.35;;;;;;;;;;5034223;28;20346;-76
2023/04/14 04:43:53;;;;;;;1.83;1.10;;;;;;;;;;5033929;28;20049;-77
2023/04/14 04:46:37;;;;;;;2.22;0.90;;;;;;;;;;5033968;28;20025;-80
2023/04/14 04:49:03;;;;;;;1.83;1.20;;;;;;;;;;5016128;28;20025;-81
2023/04/14 04:51:30;;;;;;;2.05;1.15;;;;;;;;;;5015816;28;20033;-80
2023/04/14 04:53:56;;;;;;;5.35;0.98;;;;;;;;;;5033335;28;20033;-78
2023/04/14 04:56:22;;;;;;;1.50;1.40;;;;;;;;;;5035740;28;20095;-78
2023/04/14 04:58:48;;;;;;;3.92;1.55;;;;;;;;;;5018664;28;20456;-81
2023/04/14 05:01:15;;;;;;;1.58;1.00;;;;;;;;;;5018120;28;20057;-81
2023/04/14 05:03:41;;;;;;;1.05;1.00;;;;;;;;;;5017865;28;20570;-81
2023/04/14 05:06:07;;;;;;;1.50;1.40;;;;;;;;;;5036143;28;20104;-79
2023/04/14 05:08:33;;;;;;;2.40;1.80;;;;;;;;;;5035876;28;20032;-81
2023/04/14 05:10:59;;;;;;;1.20;1.10;;;;;;;;;;5021901;28;20445;-80
2023/04/14 05:13:26;;;;;;;3.97;1.58;;;;;;;;;;4998973;28;20040;-80
2023/04/14 05:15:52;;;;;;;5.28;1.50;;;;;;;;;;5016654;28;20030;-80
2023/04/14 05:18:18;;;;;;;4.53;1.45;;;;;;;;;;5000240;28;20032;-80
2023/04/14 05:20:44;;;;;;;2.53;1.10;;;;;;;;;;5017482;28;20030;-80
2023/04/14 05:23:10;;;;;;;4.00;1.20;;;;;;;;;;5017936;28;20018;-75
2023/04/14 05:25:36;;;;;;;5.20;1.63;;;;;;;;;;4998796;28;20524;-73
2023/04/14 05:28:02;;;;;;;5.20;2.65;;;;;;;;;;5015817;28;20097;-78
2023/04/14 05:30:28;;;;;;;3.72;1.33;;;;;;;;;;5015469;28;20056;-74
2023/04/14 05:32:54;;;;;;;3.03;1.88;;;;;;;;;;5014096;28;20037;-72
2023/04/14 05:35:20;;;;;;;4.68;1.88;;;;;;;;;;4995042;28;20038;-73
2023/04/14 05:37:46;;;;;;;2.75;1.58;;;;;;;;;;5013335;28;20030;-77
2023/04/14 05:40:12;;;;;;;4.10;2.30;;;;;;;;;;5016815;28;20033;-75
2023/04/14 05:42:41;;;;;;;14.23;4.57;;;;;;;;;;5019722;28;20498;-78
2023/04/14 05:45:08;;;;;;;8.18;4.30;;;;;;;;;;5003602;28;20032;-74
2023/04/14 05:47:34;;;;;;;6.45;2.92;;;;;;;;;;5018559;28;20064;-74
2023/04/14 05:50:02;;;;;;;3.22;2.20;;;;;;;;;;5019796;28;20021;-79
2023/04/14 05:52:28;;;;;;;4.90;3.15;;;;;;;;;;5001910;28;20046;-79
2023/04/14 05:54:54;;;;;;;7.68;4.00;;;;;;;;;;5000869;28;20088;-74
2023/04/14 05:57:20;;;;;;;4.05;2.10;;;;;;;;;;5003064;28;20030;-76
2023/04/14 05:59:46;;;;;;;2.30;2.10;;;;;;;;;;4997676;28;20026;-77
2023/04/14 06:02:12;;;;;;;4.72;1.50;;;;;;;;;;5003785;28;20030;-78
2023/04/14 06:04:39;;;;;;;3.55;1.92;;;;;;;;;;5008416;28;20014;-74
2023/04/14 06:07:05;;;;;;;1.45;1.30;;;;;;;;;;5023180;28;20036;-74
2023/04/14 06:09:31;;;;;;;3.85;2.15;;;;;;;;;;5019770;28;20082;-74
2023/04/14 06:11:57;;;;;;;13.23;4.03;;;;;;;;;;5033317;28;20532;-77
2023/04/14 06:14:23;;;;;;;11.40;2.33;;;;;;;;;;5014190;28;20037;-78
2023/04/14 06:16:49;;;;;;;6.50;2.20;;;;;;;;;;5016647;28;20092;-78
2023/04/14 06:19:17;;;;;;;4.68;2.42;;;;;;;;;;5016843;28;20068;-78
2023/04/14 06:21:44;;;;;;;3.50;1.90;;;;;;;;;;5017941;28;20018;-80
2023/04/14 06:24:10;;;;;;;5.93;1.88;;;;;;;;;;5022238;28;20052;-74
2023/04/14 06:26:36;;;;;;;7.10;2.72;;;;;;;;;;5017752;28;20467;-76
2023/04/14 06:29:04;;;;;;;8.77;3.35;;;;;;;;;;5020136;28;20033;-75
2023/04/14 06:31:31;;;;;;;8.27;2.30;;;;;;;;;;5017456;28;20046;-71
2023/04/14 06:33:57;;;;;;;10.82;4.35;;;;;;;;;;5007361;28;20026;-80
2023/04/14 06:36:23;;;;;;;4.32;3.90;;;;;;;;;;5003666;28;20030;-76
2023/04/14 06:38:49;;;;;;;4.60;2.28;;;;;;;;;;4994255;28;20029;-76
2023/04/14 06:41:15;;;;;;;5.68;3.10;;;;;;;;;;4994580;28;20481;-79
2023/04/14 06:43:41;;;;;;;3.58;2.00;;;;;;;;;;4994529;28;20108;-80
2023/04/14 06:46:07;;;;;;;2.78;1.77;;;;;;;;;;4999632;28;20473;-75
2023/04/14 06:48:33;;;;;;;6.15;1.00;;;;;;;;;;5002232;28;20089;-74
2023/04/14 06:50:59;;;;;;;0.77;0.50;;;;;;;;;;5000987;28;20034;-77
2023/04/14 06:53:25;;;;;;;1.25;0.55;;;;;;;;;;5003781;28;20105;-78
2023/04/14 06:55:58;;;;;;;6.03;0.77;;;;;;;;;;5008787;28;20037;-78
2023/04/14 06:58:30;;;;;;;4.38;0.80;;;;;;;;;;5013097;28;20486;-77
2023/04/14 07:01:00;;;;;;;2.33;0.50;;;;;;;;;;4996277;28;20053;-76
2023/04/14 07:03:26;;;;;;;3.17;0.80;;;;;;;;;;4996755;28;20080;-77
2023/04/14 07:05:52;;;;;;;3.70;1.10;;;;;;;;;;5013463;28;20029;-79
2023/04/14 07:08:19;;;;;;;1.40;0.40;;;;;;;;;;4996981;28;20026;-81
2023/04/14 07:10:46;;;;;;;3.78;0.95;;;;;;;;;;4995816;28;20204;-77
2023/04/14 07:13:12;;;;;;;2.33;1.00;;;;;;;;;;5014267;28;20038;-78
2023/04/14 07:15:38;;;;;;;2.22;0.63;;;;;;;;;;5013762;28;20505;-78
2023/04/14 07:18:04;;;;;;;0.93;0.40;;;;;;;;;;4997169;28;20504;-78
2023/04/14 07:20:30;;;;;;;0.55;0.40;;;;;;;;;;4995830;28;20115;-76
2023/04/14 07:22:56;;;;;;;1.95;0.55;;;;;;;;;;5017681;28;20471;-81
2023/04/14 07:25:22;;;;;;;2.35;0.30;;;;;;;;;;5018079;28;20026;-79
2023/04/14 07:27:48;;;;;;;1.88;0.40;;;;;;;;;;5007552;28;20415;-80
2023/04/14 07:30:14;;;;;;;2.38;0.45;;;;;;;;;;5018524;28;20116;-79
2023/04/14 07:32:41;;;;;;;5.05;1.42;;;;;;;;;;5000403;28;20029;-81
2023/04/14 07:35:09;;;;;;;4.07;0.80;;;;;;;;;;5018737;28;20048;-79
2023/04/14 07:37:35;;;;;;;0.50;0.50;;;;;;;;;;5003656;28;20329;-81
2023/04/14 07:40:02;;;;;;;3.90;0.85;;;;;;;;;;5021987;28;20029;-76
2023/04/14 07:42:28;;;;;;;0.65;0.50;;;;;;;;;;5011558;28;20033;-77
2023/04/14 07:44:54;;;;;;;1.48;0.93;;;;;;;;;;5015942;28;20021;-75
2023/04/14 07:47:20;;;;;;;3.83;0.88;;;;;;;;;;5008485;28;20030;-78
2023/04/14 07:49:46;;;;;;;0.63;0.63;;;;;;;;;;5014102;28;20038;-78
2023/04/14 07:52:12;;;;;;;1.30;0.70;;;;;;;;;;5013906;28;20029;-77
2023/04/14 07:54:38;;;;;;;3.50;1.17;;;;;;;;;;4994703;28;20486;-77
2023/04/14 07:57:04;;;;;;;0.95;0.75;;;;;;;;;;4994848;28;20014;-77
2023/04/14 07:59:30;;;;;;;3.47;0.75;;;;;;;;;;4995651;28;20064;-77
2023/04/14 08:01:56;;;;;;;3.10;1.08;;;;;;;;;;4995488;28;20050;-77
2023/04/14 08:04:22;;;;;;;2.50;0.85;;;;;;;;;;5013354;28;20037;-76
2023/04/14 08:06:48;;;;;;;0.55;0.47;;;;;;;;;;4994786;28;20026;-78
2023/04/14 08:09:16;;;;;;;2.85;1.08;;;;;;;;;;5013103;28;20026;-78
2023/04/14 08:11:42;;;;;;;1.15;0.43;;;;;;;;;;4995571;28;20029;-75
2023/04/14 08:14:08;;;;;;;0.90;0.70;;;;;;;;;;4995281;28;20029;-75
2023/04/14 08:16:35;;;;;;;2.75;0.93;;;;;;;;;;4994888;28;20547;-74
2023/04/14 08:19:01;;;;;;;0.57;0.50;;;;;;;;;;5015405;28;20018;-74
2023/04/14 08:21:27;;;;;;;3.35;0.95;;;;;;;;;;5016488;28;20093;-75
2023/04/14 08:23:53;;;;;;;4.13;0.85;;;;;;;;;;5016182;28;20064;-74
2023/04/14 08:26:20;;;;;;;0.90;0.38;;;;;;;;;;4999625;28;20032;-75
2023/04/14 08:28:46;;;;;;;2.72;0.45;;;;;;;;;;5016656;28;20065;-78
2023/04/14 08:31:12;;;;;;;1.48;0.40;;;;;;;;;;5016498;28;20026;-74
2023/04/14 08:33:38;;;;;;;3.10;0.88;;;;;;;;;;5014212;28;20022;-76
2023/04/14 08:36:04;;;;;;;4.13;0.68;;;;;;;;;;5015615;28;20168;-75
2023/04/14 08:38:30;;;;;;;2.72;0.50;;;;;;;;;;5017289;28;20382;-76
2023/04/14 08:40:56;;;;;;;4.10;0.70;;;;;;;;;;5019982;28;20041;-75
2023/04/14 08:43:23;;;;;;;1.27;0.63;;;;;;;;;;5019444;28;20101;-79
2023/04/14 08:45:50;;;;;;;3.00;1.02;;;;;;;;;;5024123;28;20030;-77
2023/04/14 08:48:18;;;;;;;1.38;0.50;;;;;;;;;;5016243;28;20014;-81
2023/04/14 08:51:03;;;;;;;0.52;0.25;;;;;;;;;;5014554;28;20037;-78
2023/04/14 08:53:30;;;;;;;1.38;0.80;;;;;;;;;;5014397;28;20114;-80
2023/04/14 08:55:58;;;;;;;4.00;0.40;;;;;;;;;;5018212;28;20038;-79
2023/04/14 08:58:24;;;;;;;6.13;1.00;;;;;;;;;;5020806;28;20059;-78
2023/04/14 09:00:51;;;;;;;2.22;0.52;;;;;;;;;;5018656;28;20070;-77
2023/04/14 09:03:18;;;;;;;3.17;0.88;;;;;;;;;;4998763;28;20077;-81
2023/04/14 09:05:44;;;;;;;1.00;0.55;;;;;;;;;;5006583;28;20026;-78
2023/04/14 09:08:10;;;;;;;1.58;0.60;;;;;;;;;;5024542;28;20030;-75
2023/04/14 09:10:37;;;;;;;4.00;1.27;;;;;;;;;;5018252;28;20108;-78
2023/04/14 09:13:05;;;;;;;1.75;0.70;;;;;;;;;;5016798;28;20029;-76
2023/04/14 09:15:31;;;;;;;2.25;0.60;;;;;;;;;;5000339;28;20334;-79
2023/04/14 09:17:57;;;;;;;5.75;0.57;;;;;;;;;;5019182;28;20022;-76
2023/04/14 09:20:24;;;;;;;2.72;0.60;;;;;;;;;;5014901;28;20057;-79
2023/04/14 09:22:52;;;;;;;0.82;0.60;;;;;;;;;;4998150;28;20026;-79
2023/04/14 09:25:19;;;;;;;3.33;0.82;;;;;;;;;;5018186;28;20439;-77
2023/04/14 09:27:45;;;;;;;1.10;0.68;;;;;;;;;;4996354;28;20033;-77
2023/04/14 09:30:12;;;;;;;1.40;0.88;;;;;;;;;;5012667;28;20044;-79
2023/04/14 09:32:38;;;;;;;3.20;1.10;;;;;;;;;;4996353;28;20026;-76
2023/04/14 09:35:05;;;;;;;1.90;0.43;;;;;;;;;;5017204;28;20045;-78
2023/04/14 09:37:42;;;;;;;1.92;0.98;;;;;;;;;;5005070;28;20026;-79
2023/04/14 09:40:08;;;;;;;1.67;0.63;;;;;;;;;;5022337;28;20024;-76
2023/04/14 09:42:39;;;;;;;4.47;0.80;;;;;;;;;;4999058;28;20056;-76
2023/04/14 09:45:05;;;;;;;1.02;0.30;;;;;;;;;;5003894;28;20029;-78
2023/04/14 09:47:31;;;;;;;2.20;0.90;;;;;;;;;;5005465;28;20098;-80
2023/04/14 09:49:58;;;;;;;0.88;0.50;;;;;;;;;;5019595;28;20025;-81
2023/04/14 09:52:38;;;;;;;1.92;0.65;;;;;;;;;;5024129;28;20018;-75
2023/04/14 09:55:07;;;;;;;3.72;0.63;;;;;;;;;;5015181;28;20376;-76
2023/04/14 09:57:34;;;;;;;3.83;0.77;;;;;;;;;;5015993;28;20089;-79
2023/04/14 10:00:00;;;;;;;6.25;1.00;;;;;;;;;;5014367;28;20054;-75
2023/04/14 10:02:26;;;;;;;1.25;0.98;;;;;;;;;;5029528;28;20022;-75
2023/04/14 10:05:19;;;;;;;1.50;0.52;;;;;;;;;;5012738;28;20086;-78
2023/04/14 10:07:45;;;;;;;4.53;0.85;;;;;;;;;;5013857;28;20106;-74
2023/04/14 10:10:14;;;;;;;1.63;0.50;;;;;;;;;;5014675;28;20026;-76
2023/04/14 10:12:41;;;;;;;;;;;;;;;;;;5012496;28;20036;-76
2023/04/14 10:15:09;;;;;;;3.78;0.95;;;;;;;;;;5016754;28;19909;-75
2023/04/14 10:17:36;;;;;;;1.67;0.60;;;;;;;;;;5010689;28;20137;-74
2023/04/14 10:20:04;;;;;;;1.10;0.47;;;;;;;;;;5017180;28;20030;-76
2023/04/14 10:22:30;;;;;;;1.45;0.30;;;;;;;;;;5015038;28;20029;-76
2023/04/14 10:24:58;;;;;;;1.95;0.77;;;;;;;;;;5029523;28;20028;-74
2023/04/14 10:27:25;;;;;;;4.28;1.08;;;;;;;;;;5033589;28;20117;-76
2023/04/14 10:29:54;;;;;;;2.08;0.73;;;;;;;;;;4998432;28;20040;-75
2023/04/14 10:32:21;;;;;;;2.30;0.52;;;;;;;;;;5016251;28;20030;-78
2023/04/14 10:34:58;;;;;;;3.70;0.93;;;;;;;;;;4998558;28;20101;-77
2023/04/14 10:37:25;;;;;;;5.63;0.90;;;;;;;;;;5017354;28;20022;-76
2023/04/14 10:39:58;;;;;;;3.67;0.85;;;;;;;;;;5015531;28;20041;-75
2023/04/14 10:42:24;;;;;;;1.67;1.13;;;;;;;;;;5017935;28;20033;-77
2023/04/14 10:45:07;;;;;;;3.80;0.52;;;;;;;;;;5004475;28;20129;-76
2023/04/14 10:47:34;;;;;;;0.75;0.47;;;;;;;;;;5003649;28;20036;-74
2023/04/14 10:50:11;;;;;;;3.00;1.17;;;;;;;;;;5023327;28;20014;-75
2023/04/14 10:52:38;;;;;;;4.72;0.85;;;;;;;;;;5023065;28;20021;-75
2023/04/14 10:55:08;;;;;;;3.00;1.42;;;;;;;;;;5000231;28;20579;-74
2023/04/14 10:57:45;;;;;;;2.53;0.60;;;;;;;;;;4998833;28;20082;-74
2023/04/14 11:00:30;;;;;;;2.75;0.52;;;;;;;;;;5018062;28;20034;-74
2023/04/14 11:03:04;;;;;;;5.18;0.82;;;;;;;;;;5018978;28;20045;-74
2023/04/14 11:05:33;;;;;;;1.88;0.52;;;;;;;;;;5019350;28;20617;-74
2023/04/14 11:08:00;;;;;;;2.75;0.70;;;;;;;;;;5018733;28;20140;-76
2023/04/14 11:10:27;;;;;;;3.72;0.85;;;;;;;;;;5023655;28;20302;-74
2023/04/14 11:12:56;;;;;;;1.88;0.68;;;;;;;;;;5005587;28;20376;-75
2023/04/14 11:15:22;;;;;;;3.03;0.80;;;;;;;;;;5000239;28;20041;-74
2023/04/14 11:17:48;;;;;;;2.40;1.08;;;;;;;;;;5018201;28;20053;-74
2023/04/14 11:20:17;;;;;;;1.05;0.60;;;;;;;;;;5017636;28;20453;-75
2023/04/14 11:22:44;;;;;;;1.35;0.52;;;;;;;;;;5004051;28;20033;-74
2023/04/14 11:25:12;;;;;;;2.67;0.65;;;;;;;;;;5024516;28;20249;-74
2023/04/14 11:27:38;;;;;;;1.00;0.70;;;;;;;;;;5019992;28;20037;-73
2023/04/14 11:30:08;;;;;;;6.15;0.60;;;;;;;;;;5019747;28;20064;-73
2023/04/14 11:32:45;;;;;;;5.65;0.70;;;;;;;;;;5006103;28;20333;-74
2023/04/14 11:35:11;;;;;;;1.05;0.68;;;;;;;;;;5021294;28;20034;-75
2023/04/14 11:37:38;;;;;;;3.90;0.43;;;;;;;;;;5002609;28;20030;-74
2023/04/14 11:40:04;;;;;;;4.03;0.90;;;;;;;;;;5022670;28;20453;-77
2023/04/14 11:42:32;;;;;;;4.10;1.00;;;;;;;;;;5021532;28;20025;-77
2023/04/14 11:44:58;;;;;;;2.85;0.70;;;;;;;;;;5005815;28;20044;-78
2023/04/14 11:47:25;;;;;;;1.23;0.47;;;;;;;;;;5025928;28;20335;-78
2023/04/14 11:49:51;;;;;;;4.13;0.65;;;;;;;;;;5022715;28;20080;-77
2023/04/14 11:52:19;;;;;;;0.70;0.70;;;;;;;;;;5005301;28;20108;-78
2023/04/14 11:54:45;;;;;;;4.67;1.37;;;;;;;;;;5005636;28;20048;-78
2023/04/14 11:57:12;;;;;;;1.40;0.65;;;;;;;;;;5009001;28;20261;-78
2023/04/14 11:59:46;;;;;;;0.43;0.43;;;;;;;;;;5022362;28;20060;-79
2023/04/14 12:02:19;;;;;;;2.72;0.75;;;;;;;;;;5022711;28;20352;-75
2023/04/14 12:04:49;;;;;;;0.80;0.50;;;;;;;;;;5004556;28;20022;-79
2023/04/14 12:07:16;;;;;;;5.50;0.70;;;;;;;;;;5020555;28;20026;-78
2023/04/14 12:09:43;;;;;;;2.75;0.63;;;;;;;;;;5021057;28;20340;-75
2023/04/14 12:12:13;;;;;;;3.20;0.88;;;;;;;;;;5004616;28;20340;-79
2023/04/14 12:14:49;;;;;;;0.60;0.55;;;;;;;;;;5019267;28;20061;-78
2023/04/14 12:17:16;;;;;;;2.40;1.15;;;;;;;;;;5007210;28;20064;-75
2023/04/14 12:19:42;;;;;;;6.03;0.73;;;;;;;;;;5026473;28;20021;-74
2023/04/14 12:22:09;;;;;;;1.25;0.52;;;;;;;;;;5005478;28;20101;-74
2023/04/14 12:24:35;;;;;;;2.42;0.35;;;;;;;;;;5005262;28;20333;-75
2023/04/14 12:27:05;;;;;;;0.55;0.55;;;;;;;;;;5020756;28;20141;-74
2023/04/14 12:29:32;;;;;;;0.88;0.60;;;;;;;;;;5004527;28;20022;-78
2023/04/14 12:31:58;;;;;;;2.45;0.68;;;;;;;;;;5021998;28;20021;-76
2023/04/14 12:34:27;;;;;;;1.10;0.80;;;;;;;;;;5006502;28;20064;-78
2023/04/14 12:36:53;;;;;;;1.98;0.50;;;;;;;;;;5004063;28;20037;-75
2023/04/14 12:39:21;;;;;;;4.72;1.30;;;;;;;;;;5001931;28;20024;-74
2023/04/14 12:41:47;;;;;;;2.90;0.50;;;;;;;;;;5021468;28;20037;-74
2023/04/14 12:44:17;;;;;;;1.77;0.57;;;;;;;;;;5021109;28;20032;-75
2023/04/14 12:46:51;;;;;;;1.55;0.40;;;;;;;;;;5003491;28;20025;-74
2023/04/14 12:49:30;;;;;;;3.20;0.52;;;;;;;;;;5004089;28;20030;-74
2023/04/14 12:51:56;;;;;;;;;;;;;;;;;;5001423;28;20025;-74
2023/04/14 12:54:22;;;;;;;3.10;0.80;;;;;;;;;;5003954;28;20244;-75
2023/04/14 12:56:48;;;;;;;4.28;0.50;;;;;;;;;;5001539;28;20052;-75
2023/04/14 12:59:14;;;;;;;2.85;0.82;;;;;;;;;;5018480;28;20026;-75
2023/04/14 13:01:40;;;;;;;1.15;0.50;;;;;;;;;;5019549;28;20272;-75
2023/04/14 13:04:06;;;;;;;1.05;0.77;;;;;;;;;;5017555;28;20026;-75
2023/04/14 13:06:32;;;;;;;4.25;0.50;;;;;;;;;;5003076;28;20014;-76
2023/04/14 13:08:59;;;;;;;0.63;0.63;;;;;;;;;;5017433;28;20056;-77
2023/04/14 13:11:25;;;;;;;1.45;0.40;;;;;;;;;;5020822;28;20076;-75
2023/04/14 13:13:52;;;;;;;1.60;0.43;;;;;;;;;;5003467;28;20013;-75
2023/04/14 13:16:18;;;;;;;3.22;0.70;;;;;;;;;;5021830;28;20033;-76
2023/04/14 13:18:45;;;;;;;1.40;0.30;;;;;;;;;;5004693;28;20014;-75
2023/04/14 13:21:11;;;;;;;1.95;0.30;;;;;;;;;;5021123;28;20025;-74
2023/04/14 13:23:37;;;;;;;1.27;0.60;;;;;;;;;;5020835;28;20018;-74
2023/04/14 13:26:04;;;;;;;2.72;0.65;;;;;;;;;;5002746;28;20329;-75
2023/04/14 13:28:30;;;;;;;3.20;0.75;;;;;;;;;;5002623;28;20092;-80
2023/04/14 13:30:57;;;;;;;2.47;0.77;;;;;;;;;;5020014;28;20077;-76
2023/04/14 13:33:23;;;;;;;1.27;0.47;;;;;;;;;;5009768;28;20034;-79
2023/04/14 13:35:50;;;;;;;0.98;0.57;;;;;;;;;;4996400;28;20041;-78
2023/04/14 13:38:16;;;;;;;1.20;0.73;;;;;;;;;;5015368;28;20037;-77
2023/04/14 13:40:42;;;;;;;3.67;0.47;;;;;;;;;;5016506;28;20053;-78
2023/04/14 13:43:12;;;;;;;2.20;1.00;;;;;;;;;;4993272;28;20049;-75
2023/04/14 13:45:38;;;;;;;1.17;0.52;;;;;;;;;;4991168;28;20077;-74
2023/04/14 13:48:04;;;;;;;1.95;0.45;;;;;;;;;;4996943;28;20022;-75
2023/04/14 13:50:31;;;;;;;1.95;0.77;;;;;;;;;;4988666;28;20114;-75
2023/04/14 13:52:57;;;;;;;1.63;0.22;;;;;;;;;;4987948;28;20098;-76
2023/04/14 13:55:23;;;;;;;4.93;0.80;;;;;;;;;;4984122;28;20042;-75
2023/04/14 13:57:49;;;;;;;1.23;0.38;;;;;;;;;;4985125;28;20128;-76
2023/04/14 14:00:15;;;;;;;3.05;0.30;;;;;;;;;;4986041;28;20042;-75
2023/04/14 14:02:42;;;;;;;2.20;0.40;;;;;;;;;;4986663;28;20515;-74
2023/04/14 14:05:09;;;;;;;1.42;0.77;;;;;;;;;;4986910;28;20034;-74
2023/04/14 14:07:35;;;;;;;0.98;0.40;;;;;;;;;;4987246;28;20014;-75
2023/04/14 14:10:01;;;;;;;1.52;0.63;;;;;;;;;;4987080;28;20015;-74
2023/04/14 14:12:27;;;;;;;2.25;0.52;;;;;;;;;;4988875;28;20263;-75
2023/04/14 14:14:53;;;;;;;1.08;0.40;;;;;;;;;;4989227;28;20034;-75
2023/04/14 14:17:19;;;;;;;1.70;0.40;;;;;;;;;;4988042;28;20475;-75
2023/04/14 14:19:45;;;;;;;0.40;0.40;;;;;;;;;;4988640;28;20073;-75
2023/04/14 14:22:11;;;;;;;1.25;0.52;;;;;;;;;;4989072;28;20062;-76
2023/04/14 14:24:38;;;;;;;1.20;0.30;;;;;;;;;;4991142;28;20531;-74
2023/04/14 14:27:04;;;;;;;2.03;0.80;;;;;;;;;;4990012;28;20540;-75
2023/04/14 14:29:30;;;;;;;1.70;0.93;;;;;;;;;;4989721;28;20034;-74
2023/04/14 14:31:56;;;;;;;2.00;0.80;;;;;;;;;;4987405;28;20073;-75
2023/04/14 14:34:22;;;;;;;2.15;0.30;;;;;;;;;;4989609;28;20022;-77
2023/04/14 14:36:48;;;;;;;1.20;0.60;;;;;;;;;;4992314;28;20502;-75
2023/04/14 14:39:14;;;;;;;1.92;0.38;;;;;;;;;;4994216;28;20499;-75
2023/04/14 14:41:41;;;;;;;1.30;0.38;;;;;;;;;;4994277;28;20026;-75
2023/04/14 14:44:07;;;;;;;0.55;0.45;;;;;;;;;;4988313;28;20125;-76
2023/04/14 14:46:33;;;;;;;3.00;1.15;;;;;;;;;;4988295;28;20030;-75